createdAt,value
2022-11-21T00:03:12.922Z,3.33
2022-11-21T00:08:22.307Z,3.80
2022-11-21T00:13:29.194Z,5.70
2022-11-21T00:18:36.791Z,5.70
2022-11-21T00:23:45.031Z,6.10
2022-11-21T00:28:52.007Z,2.60
2022-11-21T00:33:58.889Z,3.63
2022-11-21T00:39:05.724Z,4.70
2022-11-21T00:44:12.553Z,5.10
2022-11-21T00:49:19.430Z,9.87
2022-11-21T00:54:26.582Z,3.30
2022-11-21T00:59:34.048Z,3.50
2022-11-21T01:04:40.897Z,3.00
2022-11-21T01:09:48.389Z,3.10
2022-11-21T01:14:55.998Z,3.07
2022-11-21T01:20:03.131Z,2.70
2022-11-21T01:25:10.774Z,2.43
2022-11-21T01:30:17.643Z,2.60
2022-11-21T01:35:25.985Z,2.93
2022-11-21T01:40:35.912Z,2.80
2022-11-21T01:45:45.850Z,2.63
2022-11-21T01:50:53.911Z,2.20
2022-11-21T01:56:01.592Z,2.80
2022-11-21T02:01:08.647Z,2.40
2022-11-21T02:06:17.511Z,2.50
2022-11-21T02:11:27.667Z,2.87
2022-11-21T02:16:36.500Z,2.50
2022-11-21T02:21:45.602Z,2.20
2022-11-21T02:26:52.714Z,2.33
2022-11-21T02:32:02.561Z,1.90
2022-11-21T02:37:11.351Z,2.20
2022-11-21T02:42:19.426Z,2.20
2022-11-21T02:47:27.089Z,2.47
2022-11-21T02:52:33.859Z,2.53
2022-11-21T02:57:41.159Z,3.17
2022-11-21T03:02:48.398Z,2.10
2022-11-21T03:07:55.397Z,2.20
2022-11-21T03:13:02.901Z,2.97
2022-11-21T03:18:09.738Z,5.80
2022-11-21T03:23:17.440Z,2.57
2022-11-21T03:28:24.402Z,2.70
2022-11-21T03:33:31.359Z,3.00
2022-11-21T03:38:41.533Z,2.80
2022-11-21T03:43:48.400Z,2.70
2022-11-21T03:48:55.330Z,2.37
2022-11-21T03:54:02.329Z,2.40
2022-11-21T03:59:09.275Z,2.30
2022-11-21T04:04:16.173Z,2.13
2022-11-21T04:09:23.067Z,2.00
2022-11-21T04:14:30.325Z,2.50
2022-11-21T04:19:37.923Z,2.23
2022-11-21T04:24:44.825Z,2.00
2022-11-21T04:29:51.689Z,1.33
2022-11-21T04:34:58.579Z,1.10
2022-11-21T04:40:05.998Z,1.40
2022-11-21T04:45:15.310Z,1.20
2022-11-21T04:50:22.732Z,0.90
2022-11-21T04:55:32.715Z,1.13
2022-11-21T05:00:39.712Z,0.60
2022-11-21T05:05:46.897Z,0.83
2022-11-21T05:10:56.345Z,0.90
2022-11-21T05:16:03.287Z,0.80
2022-11-21T05:21:10.210Z,0.87
2022-11-21T05:26:17.096Z,1.10
2022-11-21T05:31:24.167Z,0.90
2022-11-21T05:36:31.567Z,1.00
2022-11-21T05:41:38.605Z,1.23
2022-11-21T05:46:46.206Z,1.40
2022-11-21T05:51:53.193Z,0.87
2022-11-21T05:57:00.453Z,0.70
2022-11-21T06:02:09.041Z,0.90
2022-11-21T06:07:15.972Z,0.90
2022-11-21T06:12:25.709Z,0.60
2022-11-21T06:17:31.474Z,0.60
2022-11-21T06:22:38.288Z,0.50
2022-11-21T06:27:45.229Z,0.50
2022-11-21T06:32:52.098Z,0.83
2022-11-21T06:37:59.519Z,0.67
2022-11-21T06:43:06.407Z,0.60
2022-11-21T06:48:13.311Z,0.70
2022-11-21T06:53:21.312Z,0.50
2022-11-21T06:58:29.354Z,0.60
2022-11-21T07:03:37.386Z,0.60
2022-11-21T07:08:44.486Z,0.50
2022-11-21T07:13:51.291Z,1.70
2022-11-21T07:18:58.232Z,0.80
2022-11-21T07:24:05.629Z,2.23
2022-11-21T07:29:12.654Z,1.80
2022-11-21T07:34:19.746Z,1.50
2022-11-21T07:39:27.016Z,1.10
2022-11-21T07:44:34.106Z,1.30
2022-11-21T07:49:41.144Z,0.70
2022-11-21T07:54:48.000Z,0.60
2022-11-21T07:59:54.927Z,0.60
2022-11-21T08:05:03.062Z,0.80
2022-11-21T08:10:10.128Z,2.27
2022-11-21T08:15:17.127Z,0.80
2022-11-21T08:20:23.993Z,0.40
2022-11-21T08:25:30.898Z,0.70
2022-11-21T08:30:40.034Z,0.70
2022-11-21T08:35:46.875Z,0.70
2022-11-21T08:40:55.303Z,0.70
2022-11-21T08:46:02.403Z,0.60
2022-11-21T08:51:09.361Z,0.60
2022-11-21T08:56:16.503Z,0.50
2022-11-21T09:01:23.976Z,0.50
2022-11-21T09:06:31.131Z,0.50
2022-11-21T09:11:38.264Z,0.50
2022-11-21T09:16:46.960Z,0.40
2022-11-21T09:21:54.072Z,0.40
2022-11-21T09:27:03.654Z,0.80
2022-11-21T09:32:10.724Z,1.10
2022-11-21T09:37:17.705Z,1.10
2022-11-21T09:42:27.383Z,0.87
2022-11-21T09:47:35.453Z,0.60
2022-11-21T09:52:43.409Z,0.60
2022-11-21T09:57:51.680Z,0.40
2022-11-21T10:02:59.456Z,0.70
2022-11-21T10:08:09.534Z,0.80
2022-11-21T10:13:19.882Z,0.60
2022-11-21T10:18:28.443Z,0.40
2022-11-21T10:23:38.202Z,0.30
2022-11-21T10:28:48.059Z,0.50
2022-11-21T10:33:57.687Z,0.40
2022-11-21T10:39:07.518Z,0.50
2022-11-21T10:44:18.883Z,2.00
2022-11-21T10:49:29.042Z,0.83
2022-11-21T10:54:38.833Z,0.80
2022-11-21T10:59:48.905Z,4.93
2022-11-21T11:04:58.842Z,1.27
2022-11-21T11:10:08.696Z,0.80
2022-11-21T11:15:18.556Z,1.30
2022-11-21T11:20:28.339Z,0.83
2022-11-21T11:25:37.289Z,0.50
2022-11-21T11:30:45.285Z,0.40
2022-11-21T11:35:52.314Z,0.57
2022-11-21T11:41:02.691Z,0.50
2022-11-21T11:46:12.271Z,0.50
2022-11-21T11:51:23.284Z,0.53
2022-11-21T11:56:33.491Z,0.50
2022-11-21T12:01:45.054Z,0.60
2022-11-21T12:12:06.446Z,0.60
2022-11-21T12:17:15.913Z,0.60
2022-11-21T12:22:23.343Z,0.60
2022-11-21T12:27:33.153Z,0.50
2022-11-21T12:32:42.903Z,0.47
2022-11-21T12:37:52.805Z,0.47
2022-11-21T12:43:02.904Z,0.40
2022-11-21T12:48:14.399Z,0.50
2022-11-21T12:53:25.805Z,0.50
2022-11-21T12:58:35.724Z,0.40
2022-11-21T13:03:45.525Z,0.30
2022-11-21T13:08:55.445Z,0.30
2022-11-21T13:14:05.233Z,0.40
2022-11-21T13:19:15.219Z,0.30
2022-11-21T13:24:25.458Z,0.37
2022-11-21T13:29:32.392Z,0.47
2022-11-21T13:34:41.375Z,0.43
2022-11-21T13:39:48.323Z,0.40
2022-11-21T13:44:55.847Z,0.40
2022-11-21T13:50:03.938Z,0.60
2022-11-21T13:55:12.004Z,0.57
2022-11-21T14:00:21.844Z,0.40
2022-11-21T14:05:31.774Z,0.40
2022-11-21T14:10:38.806Z,0.57
2022-11-21T14:15:48.891Z,0.50
2022-11-21T14:20:59.155Z,0.40
2022-11-21T14:26:09.144Z,0.60
2022-11-21T14:31:16.551Z,0.50
2022-11-21T14:36:26.741Z,0.50
2022-11-21T14:41:34.738Z,0.50
2022-11-21T14:46:43.929Z,0.50
2022-11-21T14:51:53.360Z,0.50
2022-11-21T14:57:03.122Z,0.57
2022-11-21T15:02:12.556Z,0.60
2022-11-21T15:07:21.092Z,0.53
2022-11-21T15:12:30.449Z,0.53
2022-11-21T15:18:03.449Z,0.50
2022-11-21T15:22:49.915Z,0.43
2022-11-21T15:27:59.772Z,0.40
2022-11-21T15:33:09.653Z,0.40
2022-11-21T15:38:17.702Z,0.40
2022-11-21T15:43:27.974Z,0.40
2022-11-21T15:48:35.040Z,0.30
2022-11-21T15:53:42.653Z,0.50
2022-11-21T15:58:49.866Z,0.60
2022-11-21T16:03:59.121Z,0.60
2022-11-21T16:09:06.409Z,0.40
2022-11-21T16:14:15.648Z,1.03
2022-11-21T16:19:22.491Z,0.60
2022-11-21T16:24:29.272Z,0.33
2022-11-21T16:29:36.350Z,0.40
2022-11-21T16:34:43.239Z,0.40
2022-11-21T16:39:51.902Z,0.40
2022-11-21T16:44:58.979Z,0.30
2022-11-21T16:50:07.065Z,0.60
2022-11-21T16:55:14.607Z,0.77
2022-11-21T17:00:23.061Z,0.83
2022-11-21T17:05:30.249Z,2.13
2022-11-21T17:10:37.359Z,1.00
2022-11-21T17:15:45.571Z,0.60
2022-11-21T17:20:52.818Z,0.80
2022-11-21T17:26:21.497Z,1.27
2022-11-21T17:31:31.499Z,0.60
2022-11-21T17:36:38.723Z,1.60
2022-11-21T17:41:46.219Z,1.77
2022-11-21T17:46:54.170Z,1.50
2022-11-21T17:52:01.601Z,0.63
2022-11-21T17:57:08.499Z,1.10
2022-11-21T18:02:15.641Z,1.60
2022-11-21T18:07:22.669Z,1.70
2022-11-21T18:12:29.682Z,0.90
2022-11-21T18:17:38.277Z,0.70
2022-11-21T18:22:46.266Z,1.77
2022-11-21T18:27:54.760Z,0.83
2022-11-21T18:33:03.793Z,0.90
2022-11-21T18:38:32.977Z,0.70
2022-11-21T18:43:19.781Z,0.93
2022-11-21T18:48:27.694Z,1.70
2022-11-21T18:53:36.010Z,1.00
2022-11-21T18:58:45.312Z,0.73
2022-11-21T19:03:54.369Z,1.10
2022-11-21T19:09:01.608Z,1.20
2022-11-21T19:14:09.698Z,2.83
2022-11-21T19:19:35.344Z,0.70
2022-11-21T19:24:28.486Z,3.50
2022-11-21T19:29:36.469Z,0.50
2022-11-21T19:34:45.870Z,0.40
2022-11-21T19:39:53.728Z,0.60
2022-11-21T19:45:02.550Z,0.40
2022-11-21T19:50:09.965Z,0.33
2022-11-21T19:55:16.963Z,0.73
2022-11-21T20:00:25.659Z,1.10
2022-11-21T20:05:33.424Z,0.63
2022-11-21T20:10:40.710Z,0.47
2022-11-21T20:15:47.948Z,0.50
2022-11-21T20:21:01.261Z,0.40
2022-11-21T20:26:12.770Z,0.80
2022-11-21T20:31:23.207Z,0.90
2022-11-21T20:36:32.547Z,0.60
2022-11-21T20:41:40.156Z,0.50
2022-11-21T20:46:48.093Z,0.33
2022-11-21T20:57:04.316Z,1.00
2022-11-21T21:02:13.128Z,1.30
2022-11-21T21:07:21.153Z,0.50
2022-11-21T21:12:28.627Z,1.90
2022-11-21T21:17:36.860Z,0.53
2022-11-21T21:22:43.857Z,0.30
2022-11-21T21:27:56.282Z,0.50
2022-11-21T21:33:03.785Z,0.40
2022-11-21T21:38:15.581Z,0.30
2022-11-21T21:43:26.198Z,0.33
2022-11-21T21:48:34.405Z,0.30
2022-11-21T21:53:41.787Z,0.30
2022-11-21T21:58:50.115Z,0.30
2022-11-21T22:03:59.591Z,0.37
2022-11-21T22:09:07.038Z,0.40
2022-11-21T22:14:17.622Z,0.40
2022-11-21T22:19:24.793Z,0.40
2022-11-21T22:24:32.032Z,0.40
2022-11-21T22:29:39.796Z,0.33
2022-11-21T22:34:46.949Z,0.80
2022-11-21T22:39:54.287Z,1.40
2022-11-21T22:45:01.556Z,0.60
2022-11-21T22:50:09.224Z,0.90
2022-11-21T22:55:16.130Z,0.37
2022-11-21T23:00:24.617Z,0.37
2022-11-21T23:05:32.689Z,0.30
2022-11-21T23:10:39.588Z,0.50
2022-11-21T23:15:47.528Z,0.40
2022-11-21T23:20:54.529Z,0.30
2022-11-21T23:26:04.046Z,0.40
2022-11-21T23:31:13.023Z,0.40
2022-11-21T23:36:24.215Z,0.40
2022-11-21T23:41:31.323Z,0.30
2022-11-21T23:46:38.368Z,0.40
2022-11-21T23:51:45.446Z,0.40
2022-11-21T23:56:53.119Z,0.60
